Time;durP1;ratioP1;P1;durP2;ratioP2;P2;SDS_P1;SDS_P2;PMS_P1;PMS_P2;Temp;Humidity;BMP_temperature;BMP_pressure;BME280_temperature;BME280_humidity;BME280_pressure;Samples;Min_cycle;Max_cycle;Signal;HPM_P1;HPM_P2
2021/06/17 00:00:16;;;;;;;3.97;2.50;;;;;;;;;;4374693;32;20118;-71
2021/06/17 00:02:42;;;;;;;4.62;2.50;;;;;;;;;;4364390;32;20113;-67
2021/06/17 00:05:10;;;;;;;2.92;2.15;;;;;;;;;;4378398;32;20117;-71
2021/06/17 00:07:36;;;;;;;4.95;2.53;;;;;;;;;;4378500;32;20112;-68
2021/06/17 00:10:07;;;;;;;5.05;2.83;;;;;;;;;;4378436;32;20105;-67
2021/06/17 00:12:33;;;;;;;4.47;2.53;;;;;;;;;;4378280;32;20121;-72
2021/06/17 00:14:58;;;;;;;4.30;2.40;;;;;;;;;;4378242;32;20109;-67
2021/06/17 00:44:52;;;;;;;6.78;2.60;;;;;;;;;;4500114;28;20104;-72
2021/06/17 00:47:18;;;;;;;3.35;2.83;;;;;;;;;;4239522;33;20093;-72
2021/06/17 00:49:44;;;;;;;8.90;2.75;;;;;;;;;;4242243;33;20094;-72
2021/06/17 00:52:10;;;;;;;5.20;2.12;;;;;;;;;;4247800;33;20131;-72
2021/06/17 00:54:35;;;;;;;5.82;2.87;;;;;;;;;;4246907;33;20528;-72
2021/06/17 00:57:08;;;;;;;7.62;2.50;;;;;;;;;;4246628;33;20128;-72
2021/06/17 00:59:35;;;;;;;8.50;3.20;;;;;;;;;;4246603;33;20109;-71
2021/06/17 01:02:00;;;;;;;4.43;2.40;;;;;;;;;;4245206;33;20112;-72
2021/06/17 01:04:27;;;;;;;5.97;2.75;;;;;;;;;;4246449;33;20116;-72
2021/06/17 01:06:53;;;;;;;3.67;2.70;;;;;;;;;;4245442;33;20113;-71
2021/06/17 01:09:42;;;;;;;8.63;2.58;;;;;;;;;;4245990;33;20219;-71
2021/06/17 01:12:25;;;;;;;9.75;3.47;;;;;;;;;;4233569;33;20100;-72
2021/06/17 01:15:02;;;;;;;8.70;3.17;;;;;;;;;;4245042;33;20105;-72
2021/06/17 01:17:28;;;;;;;3.62;2.78;;;;;;;;;;4246617;33;20120;-72
2021/06/17 01:20:04;;;;;;;5.12;2.67;;;;;;;;;;4233247;33;20113;-72
2021/06/17 01:22:52;;;;;;;6.62;2.53;;;;;;;;;;4245026;33;20099;-72
2021/06/17 01:25:26;;;;;;;7.28;2.70;;;;;;;;;;4233232;33;20199;-72
2021/06/17 01:28:07;;;;;;;7.28;2.70;;;;;;;;;;4245301;33;20124;-72
2021/06/17 01:31:00;;;;;;;5.47;2.75;;;;;;;;;;4246381;33;20196;-72
2021/06/17 01:33:30;;;;;;;3.47;2.90;;;;;;;;;;4234143;33;20206;-71
2021/06/17 01:36:00;;;;;;;5.87;2.53;;;;;;;;;;4245759;33;20448;-71
2021/06/17 01:38:26;;;;;;;4.30;2.65;;;;;;;;;;4233575;33;20128;-72
2021/06/17 01:40:52;;;;;;;6.03;2.65;;;;;;;;;;4232927;33;20203;-71
2021/06/17 01:43:18;;;;;;;4.28;2.80;;;;;;;;;;4245355;33;20124;-72
2021/06/17 01:45:45;;;;;;;5.62;2.90;;;;;;;;;;4244601;33;20378;-72
2021/06/17 01:48:11;;;;;;;3.25;2.62;;;;;;;;;;4244541;33;20531;-72
2021/06/17 01:50:37;;;;;;;6.03;3.53;;;;;;;;;;4233231;33;20128;-71
2021/06/17 01:53:03;;;;;;;4.87;2.60;;;;;;;;;;4233539;33;20121;-69
2021/06/17 01:55:30;;;;;;;6.20;2.62;;;;;;;;;;4246044;33;20450;-73
2021/06/17 01:57:59;;;;;;;4.20;2.80;;;;;;;;;;4233106;33;20124;-73
2021/06/17 02:00:24;;;;;;;4.87;3.03;;;;;;;;;;4232826;33;20118;-72
2021/06/17 02:02:50;;;;;;;7.20;2.90;;;;;;;;;;4244524;33;20143;-72
2021/06/17 02:05:16;;;;;;;8.20;3.97;;;;;;;;;;4244541;33;20123;-72
2021/06/17 02:07:43;;;;;;;4.12;2.65;;;;;;;;;;4246174;33;20132;-71
2021/06/17 02:10:09;;;;;;;4.35;2.72;;;;;;;;;;4232862;33;20113;-71
2021/06/17 02:12:35;;;;;;;5.22;3.00;;;;;;;;;;4245881;33;20202;-71
2021/06/17 02:15:01;;;;;;;7.07;2.97;;;;;;;;;;4232704;33;20189;-71
2021/06/17 02:17:27;;;;;;;3.62;2.80;;;;;;;;;;4233291;33;20509;-71
2021/06/17 02:19:52;;;;;;;3.17;2.83;;;;;;;;;;4221188;33;20128;-71
2021/06/17 02:22:19;;;;;;;4.47;2.72;;;;;;;;;;4244494;33;20195;-71
2021/06/17 02:24:47;;;;;;;4.50;2.83;;;;;;;;;;4245663;33;20225;-71
2021/06/17 02:27:16;;;;;;;4.40;3.37;;;;;;;;;;4221324;33;20121;-69
2021/06/17 02:29:44;;;;;;;8.73;3.30;;;;;;;;;;4221526;33;20111;-70
2021/06/17 02:32:17;;;;;;;4.87;3.12;;;;;;;;;;4245555;33;20112;-70
2021/06/17 02:34:43;;;;;;;3.92;2.83;;;;;;;;;;4233310;33;20097;-70
2021/06/17 02:37:09;;;;;;;7.30;2.92;;;;;;;;;;4245544;33;20116;-69
2021/06/17 02:39:35;;;;;;;8.40;2.95;;;;;;;;;;4232624;33;20229;-72
2021/06/17 02:42:01;;;;;;;3.70;2.70;;;;;;;;;;4232668;33;20611;-73
2021/06/17 02:44:27;;;;;;;5.35;3.20;;;;;;;;;;4231986;33;20120;-72
2021/06/17 02:46:53;;;;;;;4.53;3.17;;;;;;;;;;4232565;33;20128;-71
2021/06/17 02:49:20;;;;;;;7.25;3.47;;;;;;;;;;4245518;33;20445;-72
2021/06/17 02:51:46;;;;;;;5.37;3.72;;;;;;;;;;4245479;33;20132;-72
2021/06/17 02:54:12;;;;;;;7.75;3.22;;;;;;;;;;4243958;33;20132;-73
2021/06/17 02:56:46;;;;;;;6.90;3.22;;;;;;;;;;4245496;33;20532;-69
2021/06/17 02:59:18;;;;;;;6.18;3.05;;;;;;;;;;4221055;33;20166;-70
2021/06/17 03:01:52;;;;;;;4.05;3.33;;;;;;;;;;4245493;33;20250;-70
2021/06/17 03:04:22;;;;;;;7.78;3.22;;;;;;;;;;4221363;33;20135;-70
2021/06/17 03:06:51;;;;;;;8.02;3.35;;;;;;;;;;4248078;33;20520;-73
2021/06/17 03:09:32;;;;;;;5.07;3.42;;;;;;;;;;4234163;33;20117;-70
2021/06/17 03:11:58;;;;;;;3.53;3.17;;;;;;;;;;4246143;33;20121;-70
2021/06/17 03:14:29;;;;;;;4.35;3.12;;;;;;;;;;4233040;33;20112;-70
2021/06/17 03:16:56;;;;;;;6.85;3.50;;;;;;;;;;4245166;33;20097;-69
2021/06/17 03:19:21;;;;;;;7.05;3.20;;;;;;;;;;4243665;33;20112;-70
2021/06/17 03:21:53;;;;;;;4.70;3.20;;;;;;;;;;4231778;33;20117;-68
2021/06/17 03:24:22;;;;;;;6.00;3.30;;;;;;;;;;4243587;33;20120;-69
2021/06/17 03:26:47;;;;;;;4.60;3.12;;;;;;;;;;4230321;33;20109;-69
2021/06/17 03:29:15;;;;;;;6.22;3.10;;;;;;;;;;4231277;33;20104;-69
2021/06/17 03:31:41;;;;;;;4.72;3.10;;;;;;;;;;4234323;33;20208;-70
2021/06/17 03:34:07;;;;;;;4.28;3.37;;;;;;;;;;4246051;33;20123;-70
2021/06/17 03:36:33;;;;;;;3.10;2.80;;;;;;;;;;4222456;33;20112;-70
2021/06/17 03:38:59;;;;;;;3.92;3.45;;;;;;;;;;4234276;33;20112;-70
2021/06/17 03:41:24;;;;;;;3.78;3.35;;;;;;;;;;4234220;33;20192;-70
2021/06/17 03:43:50;;;;;;;5.43;3.17;;;;;;;;;;4233943;33;20521;-72
2021/06/17 03:46:16;;;;;;;8.18;3.62;;;;;;;;;;4234312;33;20215;-71
2021/06/17 03:48:42;;;;;;;4.18;3.10;;;;;;;;;;4234145;33;20132;-71
2021/06/17 03:51:08;;;;;;;6.03;3.47;;;;;;;;;;4234202;33;20201;-71
2021/06/17 03:53:35;;;;;;;8.23;3.45;;;;;;;;;;4234459;33;20132;-71
2021/06/17 03:56:01;;;;;;;3.37;3.08;;;;;;;;;;4234316;33;20132;-70
2021/06/17 03:58:27;;;;;;;4.45;3.28;;;;;;;;;;4222636;33;20119;-71
2021/06/17 04:00:55;;;;;;;5.25;3.55;;;;;;;;;;4234151;33;20452;-70
2021/06/17 04:03:21;;;;;;;5.18;3.70;;;;;;;;;;4245605;33;20540;-71
2021/06/17 04:05:47;;;;;;;4.78;3.10;;;;;;;;;;4222329;33;20206;-71
2021/06/17 04:08:14;;;;;;;3.30;2.92;;;;;;;;;;4233939;33;20461;-71
2021/06/17 04:10:41;;;;;;;6.57;3.28;;;;;;;;;;4222480;33;20120;-71
2021/06/17 04:13:06;;;;;;;4.45;2.85;;;;;;;;;;4246868;33;20104;-71
2021/06/17 04:15:32;;;;;;;4.22;3.30;;;;;;;;;;4222259;33;20104;-70
2021/06/17 04:18:02;;;;;;;5.35;3.37;;;;;;;;;;4234137;33;20135;-71
2021/06/17 04:20:33;;;;;;;3.83;3.00;;;;;;;;;;4246989;33;20153;-71
2021/06/17 04:22:59;;;;;;;4.97;3.40;;;;;;;;;;4233923;33;20120;-70
2021/06/17 04:25:25;;;;;;;3.83;3.30;;;;;;;;;;4245457;33;20092;-71
2021/06/17 04:27:54;;;;;;;5.28;3.47;;;;;;;;;;4222491;33;20107;-70
2021/06/17 04:30:20;;;;;;;4.57;3.40;;;;;;;;;;4234064;33;20595;-71
2021/06/17 04:32:47;;;;;;;6.10;3.45;;;;;;;;;;4222255;33;20535;-71
2021/06/17 04:35:14;;;;;;;4.50;3.30;;;;;;;;;;4233575;33;20210;-72
2021/06/17 04:37:40;;;;;;;3.53;3.22;;;;;;;;;;4233895;33;20109;-71
2021/06/17 04:40:07;;;;;;;6.22;3.83;;;;;;;;;;4222074;33;20521;-70
2021/06/17 04:42:33;;;;;;;6.28;3.80;;;;;;;;;;4233702;33;20126;-72
2021/06/17 04:44:59;;;;;;;11.98;3.90;;;;;;;;;;4246778;33;20508;-70
2021/06/17 04:47:25;;;;;;;3.95;3.08;;;;;;;;;;4221998;33;20484;-71
2021/06/17 04:49:51;;;;;;;3.72;3.17;;;;;;;;;;4246801;33;20231;-71
2021/06/17 04:52:33;;;;;;;5.53;2.80;;;;;;;;;;4246717;33;20222;-70
2021/06/17 04:54:59;;;;;;;6.45;3.40;;;;;;;;;;4246899;33;20187;-71
2021/06/17 04:57:25;;;;;;;3.42;3.12;;;;;;;;;;4246398;33;20093;-71
2021/06/17 04:59:51;;;;;;;5.68;3.00;;;;;;;;;;4246499;33;20532;-71
2021/06/17 05:02:17;;;;;;;3.20;2.90;;;;;;;;;;4246351;33;20137;-72
2021/06/17 05:04:43;;;;;;;3.90;3.30;;;;;;;;;;4246307;33;20543;-71
2021/06/17 05:12:18;;;;;;;6.87;2.97;;;;;;;;;;4246184;33;20180;-71
2021/06/17 05:14:44;;;;;;;5.15;2.85;;;;;;;;;;4246031;33;20108;-71
2021/06/17 05:17:10;;;;;;;4.78;3.22;;;;;;;;;;4246308;33;20123;-71
2021/06/17 05:19:36;;;;;;;6.50;3.20;;;;;;;;;;4246528;33;20464;-71
2021/06/17 05:22:03;;;;;;;3.30;2.97;;;;;;;;;;4221822;33;20144;-71
2021/06/17 05:24:28;;;;;;;3.17;2.90;;;;;;;;;;4245908;33;20460;-71
2021/06/17 05:26:55;;;;;;;3.03;2.72;;;;;;;;;;4246063;33;20125;-72
2021/06/17 05:29:21;;;;;;;5.95;3.30;;;;;;;;;;4245353;33;20101;-71
2021/06/17 05:31:47;;;;;;;6.00;3.17;;;;;;;;;;4244659;33;20117;-71
2021/06/17 05:34:13;;;;;;;3.95;2.58;;;;;;;;;;4232775;33;20132;-70
2021/06/17 05:36:39;;;;;;;4.07;3.67;;;;;;;;;;4232883;33;20285;-71
2021/06/17 05:39:05;;;;;;;4.70;2.90;;;;;;;;;;4245845;33;20120;-71
2021/06/17 05:41:31;;;;;;;9.98;3.05;;;;;;;;;;4245760;33;20461;-70
2021/06/17 05:43:56;;;;;;;6.15;3.05;;;;;;;;;;4245547;33;20112;-71
2021/06/17 05:46:22;;;;;;;4.22;2.97;;;;;;;;;;4245805;33;20208;-73
2021/06/17 05:48:48;;;;;;;4.75;2.17;;;;;;;;;;4246544;33;20104;-70
2021/06/17 05:51:14;;;;;;;7.43;2.78;;;;;;;;;;4247408;33;20112;-71
2021/06/17 05:53:40;;;;;;;3.03;2.20;;;;;;;;;;4233162;33;20104;-73
2021/06/17 05:56:06;;;;;;;2.60;2.37;;;;;;;;;;4233193;33;20144;-74
2021/06/17 05:58:34;;;;;;;3.87;2.25;;;;;;;;;;4245972;33;20458;-72
2021/06/17 06:01:00;;;;;;;3.62;2.72;;;;;;;;;;4245524;33;20120;-73
2021/06/17 06:03:26;;;;;;;4.07;2.62;;;;;;;;;;4245796;33;20228;-73
2021/06/17 06:05:52;;;;;;;3.03;2.47;;;;;;;;;;4245629;33;20584;-74
2021/06/17 06:08:18;;;;;;;4.43;2.67;;;;;;;;;;4232832;33;20620;-73
2021/06/17 06:10:44;;;;;;;2.95;2.65;;;;;;;;;;4232816;33;20140;-73
2021/06/17 06:13:10;;;;;;;4.25;2.50;;;;;;;;;;4245621;33;20116;-72
2021/06/17 06:15:36;;;;;;;3.75;2.92;;;;;;;;;;4245539;33;20136;-72
2021/06/17 06:18:13;;;;;;;4.78;2.90;;;;;;;;;;4245794;33;20132;-72
2021/06/17 06:20:41;;;;;;;2.67;2.30;;;;;;;;;;4245618;33;20112;-72
2021/06/17 06:23:07;;;;;;;2.10;1.90;;;;;;;;;;4245800;33;20207;-72
2021/06/17 06:25:33;;;;;;;3.08;2.78;;;;;;;;;;4245606;33;20796;-72
2021/06/17 06:27:59;;;;;;;4.53;2.60;;;;;;;;;;4245646;33;20220;-72
2021/06/17 06:30:25;;;;;;;3.78;2.72;;;;;;;;;;4245330;33;20385;-72
2021/06/17 06:32:51;;;;;;;2.70;2.50;;;;;;;;;;4232394;33;20089;-72
2021/06/17 06:35:17;;;;;;;4.50;2.97;;;;;;;;;;4232696;33;20121;-72
2021/06/17 06:37:50;;;;;;;2.22;1.90;;;;;;;;;;4247141;33;20548;-72
2021/06/17 06:40:17;;;;;;;3.17;2.87;;;;;;;;;;4247627;33;20100;-71
2021/06/17 06:42:43;;;;;;;5.47;2.47;;;;;;;;;;4247773;33;20100;-71
2021/06/17 06:45:10;;;;;;;2.95;2.45;;;;;;;;;;4254738;33;20125;-72
2021/06/17 06:47:36;;;;;;;3.17;2.87;;;;;;;;;;4261632;33;20144;-72
2021/06/17 06:50:02;;;;;;;5.43;2.92;;;;;;;;;;4261027;33;20096;-71
2021/06/17 06:52:28;;;;;;;4.32;2.62;;;;;;;;;;4261006;33;20131;-72
2021/06/17 06:54:58;;;;;;;2.37;2.17;;;;;;;;;;4248373;33;20128;-72
2021/06/17 06:57:27;;;;;;;3.33;2.53;;;;;;;;;;4261131;33;20097;-72
2021/06/17 06:59:54;;;;;;;2.42;2.22;;;;;;;;;;4236403;33;20128;-72
2021/06/17 07:02:20;;;;;;;3.92;2.00;;;;;;;;;;4261631;33;20144;-72
2021/06/17 07:04:46;;;;;;;5.30;2.80;;;;;;;;;;4261611;33;20120;-73
2021/06/17 07:07:12;;;;;;;8.80;2.75;;;;;;;;;;4261731;33;20124;-73
2021/06/17 07:09:38;;;;;;;2.78;2.28;;;;;;;;;;4261147;33;20135;-72
2021/06/17 07:12:04;;;;;;;5.78;2.25;;;;;;;;;;4261237;33;20190;-71
2021/06/17 07:14:30;;;;;;;2.42;2.22;;;;;;;;;;4261576;33;20259;-72
2021/06/17 07:16:56;;;;;;;3.95;2.53;;;;;;;;;;4261648;33;20123;-72
2021/06/17 07:19:22;;;;;;;2.70;2.37;;;;;;;;;;4259829;33;20160;-71
2021/06/17 07:21:48;;;;;;;2.45;2.20;;;;;;;;;;4261403;33;20540;-72
2021/06/17 07:24:14;;;;;;;2.75;2.42;;;;;;;;;;4261432;33;20215;-74
2021/06/17 07:26:40;;;;;;;5.40;2.15;;;;;;;;;;4260066;33;20116;-73
2021/06/17 07:29:06;;;;;;;2.42;2.20;;;;;;;;;;4261276;33;20089;-72
2021/06/17 07:31:32;;;;;;;6.80;2.10;;;;;;;;;;4258546;33;20139;-74
2021/06/17 07:33:58;;;;;;;1.92;1.80;;;;;;;;;;4259989;33;20095;-71
2021/06/17 07:36:24;;;;;;;3.22;2.40;;;;;;;;;;4248319;33;20544;-69
2021/06/17 07:38:50;;;;;;;5.07;2.10;;;;;;;;;;4260457;33;20142;-71
2021/06/17 07:41:16;;;;;;;2.12;1.70;;;;;;;;;;4256960;33;20120;-73
2021/06/17 07:43:42;;;;;;;4.20;1.80;;;;;;;;;;4259744;33;20125;-73
2021/06/17 07:46:08;;;;;;;3.30;1.95;;;;;;;;;;4259886;33;20539;-72
2021/06/17 07:48:35;;;;;;;4.53;1.75;;;;;;;;;;4258067;33;20195;-71
2021/06/17 07:51:01;;;;;;;3.42;1.87;;;;;;;;;;4246997;33;20468;-70
2021/06/17 07:53:27;;;;;;;1.80;1.70;;;;;;;;;;4259911;33;20116;-75
2021/06/17 07:55:53;;;;;;;2.75;1.90;;;;;;;;;;4259891;33;20822;-70
2021/06/17 07:58:19;;;;;;;3.42;1.80;;;;;;;;;;4259584;33;20254;-71
2021/06/17 08:00:45;;;;;;;5.87;1.80;;;;;;;;;;4259895;33;20414;-72
2021/06/17 08:03:10;;;;;;;1.60;1.50;;;;;;;;;;4259445;33;20159;-72
2021/06/17 08:05:36;;;;;;;4.05;1.70;;;;;;;;;;4260928;33;20523;-69
2021/06/17 08:08:03;;;;;;;3.67;2.05;;;;;;;;;;4260905;33;20262;-72
2021/06/17 08:10:28;;;;;;;2.42;1.60;;;;;;;;;;4260865;33;20103;-69
2021/06/17 08:12:54;;;;;;;4.65;1.52;;;;;;;;;;4247970;33;20132;-70
2021/06/17 08:15:22;;;;;;;3.20;1.60;;;;;;;;;;4260228;33;20483;-71
2021/06/17 08:17:48;;;;;;;3.75;1.62;;;;;;;;;;4260197;33;20113;-70
2021/06/17 08:20:14;;;;;;;3.80;1.80;;;;;;;;;;4260623;33;20218;-72
2021/06/17 08:22:41;;;;;;;11.80;2.00;;;;;;;;;;4259949;33;20144;-69
2021/06/17 08:25:08;;;;;;;2.10;1.52;;;;;;;;;;4247846;33;20124;-69
2021/06/17 08:27:35;;;;;;;9.82;1.83;;;;;;;;;;4260767;33;20096;-69
2021/06/17 08:30:03;;;;;;;3.03;1.60;;;;;;;;;;4261091;33;20119;-69
2021/06/17 08:32:29;;;;;;;3.17;1.60;;;;;;;;;;4247616;33;20203;-70
2021/06/17 08:34:55;;;;;;;1.90;1.65;;;;;;;;;;4260357;33;20316;-70
2021/06/17 08:37:21;;;;;;;3.87;1.77;;;;;;;;;;4259857;33;20226;-70
2021/06/17 08:39:47;;;;;;;5.87;1.60;;;;;;;;;;4260762;33;20108;-70
2021/06/17 08:42:13;;;;;;;1.55;1.42;;;;;;;;;;4259156;33;20770;-72
2021/06/17 08:44:39;;;;;;;4.40;1.73;;;;;;;;;;4259742;33;20477;-70
2021/06/17 08:47:05;;;;;;;7.03;1.58;;;;;;;;;;4247659;33;20171;-69
2021/06/17 08:49:31;;;;;;;3.97;1.52;;;;;;;;;;4260093;33;20135;-70
2021/06/17 08:52:00;;;;;;;5.15;1.70;;;;;;;;;;4247474;33;20162;-71
2021/06/17 08:54:26;;;;;;;3.17;1.58;;;;;;;;;;4260506;33;20675;-71
2021/06/17 08:56:52;;;;;;;1.60;1.50;;;;;;;;;;4246954;33;20120;-71
2021/06/17 08:59:18;;;;;;;4.57;1.60;;;;;;;;;;4259775;33;20088;-71
2021/06/17 09:01:54;;;;;;;1.35;1.25;;;;;;;;;;4246268;33;20115;-71
2021/06/17 09:04:22;;;;;;;2.83;1.60;;;;;;;;;;4260554;33;20127;-71
2021/06/17 09:07:06;;;;;;;1.62;1.52;;;;;;;;;;4259320;33;20100;-71
2021/06/17 09:09:33;;;;;;;2.78;1.90;;;;;;;;;;4247558;33;20131;-70
2021/06/17 09:11:58;;;;;;;2.30;1.73;;;;;;;;;;4260532;33;20104;-70
2021/06/17 09:14:27;;;;;;;3.25;1.52;;;;;;;;;;4257820;33;20100;-70
2021/06/17 09:17:07;;;;;;;3.53;1.77;;;;;;;;;;4260441;33;20104;-70
2021/06/17 09:19:42;;;;;;;1.67;1.58;;;;;;;;;;4260504;33;20534;-69
2021/06/17 09:22:08;;;;;;;2.35;1.50;;;;;;;;;;4235929;33;20092;-70
2021/06/17 09:24:35;;;;;;;1.95;1.70;;;;;;;;;;4260131;33;20325;-71
2021/06/17 09:27:20;;;;;;;1.83;1.67;;;;;;;;;;4260306;33;20192;-70
2021/06/17 09:29:47;;;;;;;1.98;1.30;;;;;;;;;;4260272;33;20419;-70
2021/06/17 09:32:23;;;;;;;4.37;1.58;;;;;;;;;;4260466;33;20124;-70
2021/06/17 09:34:49;;;;;;;2.45;1.60;;;;;;;;;;4260140;33;20128;-70
2021/06/17 09:37:29;;;;;;;4.40;2.35;;;;;;;;;;4260268;33;20220;-70
2021/06/17 09:39:55;;;;;;;2.85;1.40;;;;;;;;;;4247119;33;20093;-71
2021/06/17 09:42:25;;;;;;;2.65;1.65;;;;;;;;;;4258746;33;20127;-71
2021/06/17 09:44:51;;;;;;;2.03;1.67;;;;;;;;;;4235292;33;20112;-71
2021/06/17 09:47:25;;;;;;;2.60;1.40;;;;;;;;;;4246821;33;20117;-71
2021/06/17 09:49:52;;;;;;;1.45;1.33;;;;;;;;;;4260210;33;20115;-71
2021/06/17 09:52:18;;;;;;;3.25;1.55;;;;;;;;;;4247186;33;20108;-71
2021/06/17 09:54:45;;;;;;;3.55;2.10;;;;;;;;;;4246975;33;20131;-71
2021/06/17 09:57:15;;;;;;;1.55;1.45;;;;;;;;;;4260015;33;20215;-71
2021/06/17 09:59:47;;;;;;;2.67;1.50;;;;;;;;;;4259812;33;20480;-71
2021/06/17 10:02:26;;;;;;;3.20;1.48;;;;;;;;;;4258941;33;20100;-72
2021/06/17 10:05:08;;;;;;;2.05;1.48;;;;;;;;;;4259949;33;20128;-71
2021/06/17 10:07:34;;;;;;;7.10;1.75;;;;;;;;;;4260266;33;20093;-72
2021/06/17 10:10:00;;;;;;;2.42;1.60;;;;;;;;;;4235229;33;20208;-71
2021/06/17 10:12:26;;;;;;;3.67;1.52;;;;;;;;;;4248375;33;20599;-71
2021/06/17 10:14:52;;;;;;;3.55;1.70;;;;;;;;;;4237444;33;20132;-72
2021/06/17 10:17:18;;;;;;;6.93;1.60;;;;;;;;;;4237267;33;20199;-72
2021/06/17 10:19:45;;;;;;;2.55;1.83;;;;;;;;;;4248946;33;20528;-70
2021/06/17 10:22:10;;;;;;;8.98;1.50;;;;;;;;;;4262099;33;20115;-70
2021/06/17 10:24:39;;;;;;;5.65;1.58;;;;;;;;;;4248941;33;20456;-70
2021/06/17 10:27:12;;;;;;;3.53;1.40;;;;;;;;;;4249476;33;20103;-70
2021/06/17 10:29:44;;;;;;;2.03;1.60;;;;;;;;;;4262148;33;20123;-71
2021/06/17 10:32:15;;;;;;;1.83;1.50;;;;;;;;;;4261999;33;20097;-70
2021/06/17 10:34:43;;;;;;;2.47;1.67;;;;;;;;;;4249283;33;20595;-70
2021/06/17 10:37:17;;;;;;;4.55;1.50;;;;;;;;;;4248880;33;20210;-70
2021/06/17 10:39:43;;;;;;;3.70;1.70;;;;;;;;;;4261977;33;20132;-70
2021/06/17 10:42:25;;;;;;;7.07;1.60;;;;;;;;;;4262227;33;20147;-70
2021/06/17 10:44:54;;;;;;;2.10;1.62;;;;;;;;;;4261773;33;20139;-70
2021/06/17 10:47:39;;;;;;;3.90;1.58;;;;;;;;;;4248850;33;20460;-70
2021/06/17 10:50:33;;;;;;;4.32;1.70;;;;;;;;;;4261874;33;20135;-70
2021/06/17 10:53:19;;;;;;;1.77;1.37;;;;;;;;;;4262135;33;20190;-70
2021/06/17 10:56:03;;;;;;;3.12;1.48;;;;;;;;;;4262005;33;20120;-70
2021/06/17 10:58:41;;;;;;;2.80;1.90;;;;;;;;;;4261812;33;20199;-70
2021/06/17 11:01:38;;;;;;;5.22;3.85;;;;;;;;;;4261825;33;20115;-70
2021/06/17 11:04:17;;;;;;;2.65;1.40;;;;;;;;;;4257997;33;20127;-70
2021/06/17 11:06:49;;;;;;;1.70;1.42;;;;;;;;;;4261687;33;20147;-70
2021/06/17 11:09:34;;;;;;;4.62;1.60;;;;;;;;;;4261526;33;20652;-70
2021/06/17 11:12:27;;;;;;;4.70;1.58;;;;;;;;;;4261776;33;20099;-70
2021/06/17 11:14:55;;;;;;;2.87;1.40;;;;;;;;;;4261564;33;20578;-70
2021/06/17 11:17:31;;;;;;;4.10;1.62;;;;;;;;;;4261560;33;20119;-70
2021/06/17 11:19:59;;;;;;;2.33;1.55;;;;;;;;;;4261642;33;20523;-70
2021/06/17 11:22:45;;;;;;;3.80;1.60;;;;;;;;;;4260985;33;20112;-70
2021/06/17 11:25:16;;;;;;;3.53;1.50;;;;;;;;;;4261515;33;20464;-70
2021/06/17 11:28:01;;;;;;;1.70;1.55;;;;;;;;;;4261552;33;20092;-70
2021/06/17 11:30:41;;;;;;;5.78;1.52;;;;;;;;;;4261412;33;20242;-70
2021/06/17 11:33:19;;;;;;;5.90;1.77;;;;;;;;;;4261345;33;20516;-70
2021/06/17 11:35:55;;;;;;;2.03;1.83;;;;;;;;;;4261746;33;20632;-70
2021/06/17 11:38:25;;;;;;;1.77;1.67;;;;;;;;;;4261337;33;20127;-70
2021/06/17 11:40:51;;;;;;;4.57;1.70;;;;;;;;;;4261592;33;20129;-70
2021/06/17 11:43:24;;;;;;;2.00;1.50;;;;;;;;;;4261215;33;20120;-70
2021/06/17 11:45:49;;;;;;;1.73;1.62;;;;;;;;;;4261392;33;20096;-70
2021/06/17 11:48:15;;;;;;;4.18;1.80;;;;;;;;;;4261155;33;20112;-70
2021/06/17 11:50:45;;;;;;;1.40;1.30;;;;;;;;;;4248256;33;20115;-70
2021/06/17 11:53:18;;;;;;;1.83;1.55;;;;;;;;;;4261207;33;20541;-71
2021/06/17 11:55:51;;;;;;;3.95;1.70;;;;;;;;;;4261320;33;20521;-70
2021/06/17 11:58:21;;;;;;;1.65;1.55;;;;;;;;;;4261224;33;20116;-70
2021/06/17 12:00:47;;;;;;;2.75;1.50;;;;;;;;;;4261281;33;20504;-70
2021/06/17 12:03:20;;;;;;;6.18;1.50;;;;;;;;;;4261012;33;20326;-71
2021/06/17 12:05:52;;;;;;;4.90;1.70;;;;;;;;;;4248360;33;20107;-70
2021/06/17 12:08:24;;;;;;;1.90;1.50;;;;;;;;;;4248035;33;20136;-71
2021/06/17 12:10:57;;;;;;;1.62;1.50;;;;;;;;;;4261117;33;20108;-71
2021/06/17 12:13:23;;;;;;;2.28;1.70;;;;;;;;;;4261065;33;20203;-70
2021/06/17 12:15:52;;;;;;;6.18;1.80;;;;;;;;;;4248178;33;20511;-70
2021/06/17 12:18:19;;;;;;;6.93;1.80;;;;;;;;;;4260964;33;20115;-71
2021/06/17 12:20:46;;;;;;;3.62;1.73;;;;;;;;;;4261229;33;20185;-70
2021/06/17 12:23:18;;;;;;;3.55;1.83;;;;;;;;;;4261090;33;20097;-70
2021/06/17 12:25:59;;;;;;;3.08;1.85;;;;;;;;;;4261307;33;20092;-71
2021/06/17 12:28:25;;;;;;;4.03;1.70;;;;;;;;;;4248324;33;20125;-70
2021/06/17 12:30:51;;;;;;;3.28;1.62;;;;;;;;;;4260867;33;20108;-71
2021/06/17 12:33:28;;;;;;;1.60;1.50;;;;;;;;;;4260914;33;20124;-71
2021/06/17 12:35:54;;;;;;;2.87;1.75;;;;;;;;;;4260817;33;20603;-70
2021/06/17 12:38:34;;;;;;;1.60;1.50;;;;;;;;;;4260961;33;20128;-70
2021/06/17 12:41:20;;;;;;;2.08;1.80;;;;;;;;;;4247834;33;20505;-70
2021/06/17 12:43:50;;;;;;;4.30;1.70;;;;;;;;;;4260428;33;20132;-70
2021/06/17 12:46:18;;;;;;;1.65;1.55;;;;;;;;;;4260696;33;20104;-70
2021/06/17 12:54:22;;;;;;;3.67;1.75;;;;;;;;;;4260799;33;20123;-70
2021/06/17 12:56:55;;;;;;;4.10;1.62;;;;;;;;;;4260855;33;20183;-70
2021/06/17 12:59:40;;;;;;;3.45;1.80;;;;;;;;;;4259195;33;20206;-70
2021/06/17 13:02:16;;;;;;;4.40;1.83;;;;;;;;;;4260777;33;20133;-70
2021/06/17 13:04:42;;;;;;;3.12;1.98;;;;;;;;;;4260487;33;20121;-70
2021/06/17 13:07:15;;;;;;;2.33;1.67;;;;;;;;;;4247452;33;20139;-70
2021/06/17 13:09:41;;;;;;;4.53;1.87;;;;;;;;;;4247526;33;20100;-70
2021/06/17 13:12:24;;;;;;;3.87;1.80;;;;;;;;;;4260500;33;20132;-70
2021/06/17 13:15:10;;;;;;;8.05;2.00;;;;;;;;;;4260580;33;20140;-70
2021/06/17 13:17:49;;;;;;;5.72;1.60;;;;;;;;;;4260758;33;20112;-71
2021/06/17 13:20:17;;;;;;;2.45;1.70;;;;;;;;;;4260449;33;20091;-70
2021/06/17 13:23:14;;;;;;;4.90;1.70;;;;;;;;;;4260378;33;20210;-70
2021/06/17 13:25:41;;;;;;;1.80;1.70;;;;;;;;;;4257347;33;20104;-70
2021/06/17 13:28:46;;;;;;;5.53;1.80;;;;;;;;;;4247365;33;20261;-70
2021/06/17 13:31:18;;;;;;;4.45;1.70;;;;;;;;;;4204486;34;20093;-70
2021/06/17 13:33:44;;;;;;;1.30;1.20;;;;;;;;;;4216019;34;20138;-71
2021/06/17 13:36:11;;;;;;;3.83;1.40;;;;;;;;;;4238037;33;20209;-71
2021/06/17 13:38:37;;;;;;;1.00;1.00;;;;;;;;;;4260101;33;20104;-71
2021/06/17 13:41:03;;;;;;;1.37;1.27;;;;;;;;;;4260302;33;20445;-70
2021/06/17 13:43:29;;;;;;;1.48;1.27;;;;;;;;;;4259940;33;20145;-72
2021/06/17 13:45:55;;;;;;;1.10;1.10;;;;;;;;;;4259314;33;20529;-72
2021/06/17 13:48:21;;;;;;;2.12;1.27;;;;;;;;;;4260021;33;20128;-70
2021/06/17 13:50:47;;;;;;;6.80;1.60;;;;;;;;;;4260091;33;20121;-70
2021/06/17 13:53:13;;;;;;;3.08;1.52;;;;;;;;;;4260137;33;20104;-70
2021/06/17 13:55:39;;;;;;;1.20;1.20;;;;;;;;;;4260049;33;20144;-71
2021/06/17 13:58:08;;;;;;;1.27;1.17;;;;;;;;;;4260268;33;20195;-71
2021/06/17 14:00:35;;;;;;;1.50;1.40;;;;;;;;;;4236052;33;20112;-73
2021/06/17 14:03:01;;;;;;;1.30;1.30;;;;;;;;;;4260143;33;20184;-72
2021/06/17 14:05:28;;;;;;;2.12;1.35;;;;;;;;;;4246846;33;20629;-71
2021/06/17 14:07:55;;;;;;;1.55;1.45;;;;;;;;;;4258443;33;20116;-71
2021/06/17 14:10:21;;;;;;;1.50;1.20;;;;;;;;;;4257964;33;20120;-70
2021/06/17 14:12:47;;;;;;;3.75;1.42;;;;;;;;;;4246932;33;20214;-70
2021/06/17 14:15:14;;;;;;;1.60;1.40;;;;;;;;;;4260022;33;20112;-70
2021/06/17 14:17:40;;;;;;;1.40;1.30;;;;;;;;;;4259853;33;20117;-70
2021/06/17 14:20:07;;;;;;;1.25;1.25;;;;;;;;;;4259969;33;20123;-70
2021/06/17 14:22:33;;;;;;;2.25;1.52;;;;;;;;;;4259804;33;20104;-70
2021/06/17 14:24:59;;;;;;;3.03;1.40;;;;;;;;;;4259653;33;20187;-71
2021/06/17 14:27:25;;;;;;;1.42;1.33;;;;;;;;;;4259764;33;20120;-71
2021/06/17 14:29:51;;;;;;;1.40;1.30;;;;;;;;;;4246672;33;20125;-70
2021/06/17 14:32:18;;;;;;;1.50;1.40;;;;;;;;;;4259725;33;20655;-70
2021/06/17 14:34:45;;;;;;;1.17;1.12;;;;;;;;;;4259772;33;20108;-70
2021/06/17 14:37:10;;;;;;;1.27;1.27;;;;;;;;;;4259687;33;20203;-71
2021/06/17 14:39:36;;;;;;;1.40;1.35;;;;;;;;;;4259905;33;20508;-71
2021/06/17 14:42:03;;;;;;;1.37;1.30;;;;;;;;;;4259618;33;20128;-71
2021/06/17 14:44:29;;;;;;;1.40;1.30;;;;;;;;;;4259224;33;20505;-70
2021/06/17 14:46:55;;;;;;;1.50;1.40;;;;;;;;;;4259576;33;20095;-70
2021/06/17 14:49:21;;;;;;;1.75;1.60;;;;;;;;;;4259366;33;20520;-70
2021/06/17 14:51:48;;;;;;;1.52;1.42;;;;;;;;;;4246679;33;20143;-70
2021/06/17 14:54:20;;;;;;;6.87;1.50;;;;;;;;;;4259466;33;20101;-70
2021/06/17 14:56:47;;;;;;;1.45;1.40;;;;;;;;;;4259572;33;20584;-70
2021/06/17 14:59:13;;;;;;;2.50;1.83;;;;;;;;;;4261587;33;20097;-70
2021/06/17 15:01:40;;;;;;;1.62;1.20;;;;;;;;;;4248819;33;20100;-71
2021/06/17 15:04:06;;;;;;;2.72;1.62;;;;;;;;;;4248592;33;20124;-70
2021/06/17 15:06:32;;;;;;;1.10;1.10;;;;;;;;;;4262000;33;20123;-70
2021/06/17 15:08:58;;;;;;;1.10;1.10;;;;;;;;;;4261633;33;20116;-70
2021/06/17 15:11:24;;;;;;;1.50;1.40;;;;;;;;;;4261674;33;20100;-70
2021/06/17 15:13:49;;;;;;;1.73;1.62;;;;;;;;;;4261695;33;20128;-70
2021/06/17 15:16:15;;;;;;;1.58;1.40;;;;;;;;;;4261516;33;20148;-70
2021/06/17 15:18:41;;;;;;;1.70;1.60;;;;;;;;;;4261504;33;20217;-70
2021/06/17 15:21:07;;;;;;;2.80;1.92;;;;;;;;;;4261539;33;20452;-70
2021/06/17 15:23:33;;;;;;;2.05;1.75;;;;;;;;;;4261475;33;20101;-70
2021/06/17 15:25:59;;;;;;;1.40;1.23;;;;;;;;;;4261656;33;20136;-73
2021/06/17 15:28:29;;;;;;;1.87;1.52;;;;;;;;;;4248343;33;20199;-72
2021/06/17 15:30:55;;;;;;;1.30;1.20;;;;;;;;;;4248854;33;20439;-73